sensor_id;sensor_type;location;lat;lon;timestamp;pressure;altitude;pressure_sealevel;temperature
65316;BMP280;51920;53.952;10.292;2023-01-13T00:02:15;99358.72;;;10.19
65316;BMP280;51920;53.952;10.292;2023-01-13T00:04:40;99349.06;;;10.18
65316;BMP280;51920;53.952;10.292;2023-01-13T00:07:06;99349.41;;;10.20
65316;BMP280;51920;53.952;10.292;2023-01-13T00:09:31;99352.91;;;10.17
65316;BMP280;51920;53.952;10.292;2023-01-13T00:11:56;99349.34;;;10.23
65316;BMP280;51920;53.952;10.292;2023-01-13T00:14:22;99351.00;;;10.17
65316;BMP280;51920;53.952;10.292;2023-01-13T00:16:47;99356.41;;;10.17
65316;BMP280;51920;53.952;10.292;2023-01-13T00:19:13;99347.91;;;10.19
65316;BMP280;51920;53.952;10.292;2023-01-13T00:21:38;99352.91;;;10.17
65316;BMP280;51920;53.952;10.292;2023-01-13T00:24:03;99347.03;;;10.22
65316;BMP280;51920;53.952;10.292;2023-01-13T00:26:29;99352.63;;;10.11
65316;BMP280;51920;53.952;10.292;2023-01-13T00:28:59;99351.91;;;10.07
65316;BMP280;51920;53.952;10.292;2023-01-13T00:31:25;99350.41;;;10.02
65316;BMP280;51920;53.952;10.292;2023-01-13T00:33:52;99354.25;;;10.05
65316;BMP280;51920;53.952;10.292;2023-01-13T00:36:19;99360.06;;;10.03
65316;BMP280;51920;53.952;10.292;2023-01-13T00:38:44;99370.38;;;9.81
65316;BMP280;51920;53.952;10.292;2023-01-13T00:41:13;99380.16;;;9.71
65316;BMP280;51920;53.952;10.292;2023-01-13T00:43:38;99372.44;;;9.70
65316;BMP280;51920;53.952;10.292;2023-01-13T00:46:05;99372.13;;;9.64
65316;BMP280;51920;53.952;10.292;2023-01-13T00:48:31;99374.13;;;9.60
65316;BMP280;51920;53.952;10.292;2023-01-13T00:53:24;99371.94;;;9.48
65316;BMP280;51920;53.952;10.292;2023-01-13T00:56:04;99365.03;;;9.43
65316;BMP280;51920;53.952;10.292;2023-01-13T00:58:31;99345.91;;;9.27
65316;BMP280;51920;53.952;10.292;2023-01-13T01:01:06;99358.31;;;9.21
65316;BMP280;51920;53.952;10.292;2023-01-13T01:03:32;99370.00;;;9.10
65316;BMP280;51920;53.952;10.292;2023-01-13T01:06:03;99374.25;;;9.08
65316;BMP280;51920;53.952;10.292;2023-01-13T01:08:29;99372.31;;;9.05
65316;BMP280;51920;53.952;10.292;2023-01-13T01:13:27;99378.59;;;8.98
65316;BMP280;51920;53.952;10.292;2023-01-13T01:15:52;99397.44;;;9.02
65316;BMP280;51920;53.952;10.292;2023-01-13T01:18:18;99383.94;;;9.02
65316;BMP280;51920;53.952;10.292;2023-01-13T01:20:43;99383.63;;;8.93
65316;BMP280;51920;53.952;10.292;2023-01-13T01:23:09;99397.13;;;8.93
65316;BMP280;51920;53.952;10.292;2023-01-13T01:25:34;99397.97;;;8.82
65316;BMP280;51920;53.952;10.292;2023-01-13T01:27:59;99400.34;;;8.73
65316;BMP280;51920;53.952;10.292;2023-01-13T01:30:25;99391.84;;;8.75
65316;BMP280;51920;53.952;10.292;2023-01-13T01:32:50;99388.78;;;8.73
65316;BMP280;51920;53.952;10.292;2023-01-13T01:35:16;99383.44;;;8.65
65316;BMP280;51920;53.952;10.292;2023-01-13T01:37:41;99388.88;;;8.62
65316;BMP280;51920;53.952;10.292;2023-01-13T01:40:07;99391.25;;;8.53
65316;BMP280;51920;53.952;10.292;2023-01-13T01:42:33;99391.34;;;8.38
65316;BMP280;51920;53.952;10.292;2023-01-13T01:45:20;99390.59;;;8.34
65316;BMP280;51920;53.952;10.292;2023-01-13T01:47:49;99381.72;;;8.30
65316;BMP280;51920;53.952;10.292;2023-01-13T01:50:17;99379.13;;;8.19
65316;BMP280;51920;53.952;10.292;2023-01-13T01:52:47;99376.44;;;8.16
65316;BMP280;51920;53.952;10.292;2023-01-13T01:55:19;99383.00;;;8.15
65316;BMP280;51920;53.952;10.292;2023-01-13T02:00:30;99385.69;;;8.15
65316;BMP280;51920;53.952;10.292;2023-01-13T02:02:56;99386.06;;;8.09
65316;BMP280;51920;53.952;10.292;2023-01-13T02:05:23;99380.28;;;8.15
65316;BMP280;51920;53.952;10.292;2023-01-13T02:07:52;99376.03;;;8.14
65316;BMP280;51920;53.952;10.292;2023-01-13T02:10:21;99381.81;;;8.16
65316;BMP280;51920;53.952;10.292;2023-01-13T02:12:48;99394.53;;;8.19
65316;BMP280;51920;53.952;10.292;2023-01-13T02:15:47;99394.88;;;8.21
65316;BMP280;51920;53.952;10.292;2023-01-13T02:21:12;99397.56;;;8.24
65316;BMP280;51920;53.952;10.292;2023-01-13T02:37:43;99394.06;;;8.31
65316;BMP280;51920;53.952;10.292;2023-01-13T02:40:16;99389.84;;;8.26
65316;BMP280;51920;53.952;10.292;2023-01-13T02:42:52;99396.81;;;8.24
65316;BMP280;51920;53.952;10.292;2023-01-13T02:45:50;99396.47;;;8.18
65316;BMP280;51920;53.952;10.292;2023-01-13T02:48:18;99399.16;;;8.15
65316;BMP280;51920;53.952;10.292;2023-01-13T02:50:49;99397.63;;;8.10
65316;BMP280;51920;53.952;10.292;2023-01-13T02:53:19;99393.78;;;8.11
65316;BMP280;51920;53.952;10.292;2023-01-13T02:55:48;99386.88;;;8.03
65316;BMP280;51920;53.952;10.292;2023-01-13T02:58:16;99383.84;;;7.97
65316;BMP280;51920;53.952;10.292;2023-01-13T03:00:44;99389.25;;;7.94
65316;BMP280;51920;53.952;10.292;2023-01-13T03:03:11;99378.50;;;7.86
65316;BMP280;51920;53.952;10.292;2023-01-13T03:05:37;99393.06;;;7.96
65316;BMP280;51920;53.952;10.292;2023-01-13T03:11:23;99386.94;;;7.92
65316;BMP280;51920;53.952;10.292;2023-01-13T03:14:22;99397.63;;;8.14
65316;BMP280;51920;53.952;10.292;2023-01-13T03:19:30;99388.50;;;7.86
65316;BMP280;51920;53.952;10.292;2023-01-13T03:22:14;99401.97;;;7.86
65316;BMP280;51920;53.952;10.292;2023-01-13T03:24:47;99404.28;;;7.84
65316;BMP280;51920;53.952;10.292;2023-01-13T03:27:35;99406.97;;;7.77
65316;BMP280;51920;53.952;10.292;2023-01-13T03:30:11;99404.69;;;7.75
65316;BMP280;51920;53.952;10.292;2023-01-13T03:32:45;99420.06;;;7.78
65316;BMP280;51920;53.952;10.292;2023-01-13T03:35:19;99416.66;;;7.71
65316;BMP280;51920;53.952;10.292;2023-01-13T03:37:50;99408.56;;;7.74
65316;BMP280;51920;53.952;10.292;2023-01-13T03:40:21;99413.88;;;7.88
65316;BMP280;51920;53.952;10.292;2023-01-13T03:42:52;99388.53;;;7.72
65316;BMP280;51920;53.952;10.292;2023-01-13T03:45:38;99413.13;;;7.81
65316;BMP280;51920;53.952;10.292;2023-01-13T03:48:13;99415.06;;;7.77
65316;BMP280;51920;53.952;10.292;2023-01-13T03:50:44;99399.34;;;7.57
65316;BMP280;51920;53.952;10.292;2023-01-13T03:53:32;99417.03;;;7.69
65316;BMP280;51920;53.952;10.292;2023-01-13T03:56:03;99418.56;;;7.59
65316;BMP280;51920;53.952;10.292;2023-01-13T03:58:32;99420.13;;;7.60
65316;BMP280;51920;53.952;10.292;2023-01-13T04:01:29;99414.72;;;7.67
65316;BMP280;51920;53.952;10.292;2023-01-13T04:04:04;99413.97;;;7.56
65316;BMP280;51920;53.952;10.292;2023-01-13T04:07:05;99419.38;;;7.56
65316;BMP280;51920;53.952;10.292;2023-01-13T04:09:40;99407.81;;;7.45
65316;BMP280;51920;53.952;10.292;2023-01-13T04:12:17;99420.53;;;7.48
65316;BMP280;51920;53.952;10.292;2023-01-13T04:14:45;99414.00;;;7.49
65316;BMP280;51920;53.952;10.292;2023-01-13T04:17:10;99410.13;;;7.43
65316;BMP280;51920;53.952;10.292;2023-01-13T04:19:36;99408.97;;;7.44
65316;BMP280;51920;53.952;10.292;2023-01-13T04:22:01;99408.56;;;7.42
65316;BMP280;51920;53.952;10.292;2023-01-13T04:24:27;99400.13;;;7.36
65316;BMP280;51920;53.952;10.292;2023-01-13T04:26:52;99398.22;;;7.33
65316;BMP280;51920;53.952;10.292;2023-01-13T04:29:18;99400.91;;;7.33
65316;BMP280;51920;53.952;10.292;2023-01-13T04:31:43;99394.75;;;7.29
65316;BMP280;51920;53.952;10.292;2023-01-13T04:34:09;99404.00;;;7.32
65316;BMP280;51920;53.952;10.292;2023-01-13T04:36:35;99409.78;;;7.23
65316;BMP280;51920;53.952;10.292;2023-01-13T04:39:01;99394.00;;;7.14
65316;BMP280;51920;53.952;10.292;2023-01-13T04:41:27;99405.53;;;7.22
65316;BMP280;51920;53.952;10.292;2023-01-13T04:43:52;99400.53;;;7.13
65316;BMP280;51920;53.952;10.292;2023-01-13T04:46:18;99393.59;;;7.05
65316;BMP280;51920;53.952;10.292;2023-01-13T04:48:43;99400.16;;;7.11
65316;BMP280;51920;53.952;10.292;2023-01-13T04:51:08;99402.84;;;7.11
65316;BMP280;51920;53.952;10.292;2023-01-13T04:53:34;99400.13;;;7.04
65316;BMP280;51920;53.952;10.292;2023-01-13T04:55:59;99405.91;;;7.13
65316;BMP280;51920;53.952;10.292;2023-01-13T04:58:24;99386.31;;;6.98
65316;BMP280;51920;53.952;10.292;2023-01-13T05:00:50;99407.44;;;7.07
65316;BMP280;51920;53.952;10.292;2023-01-13T05:03:15;99413.59;;;7.04
65316;BMP280;51920;53.952;10.292;2023-01-13T05:05:41;99405.16;;;7.02
65316;BMP280;51920;53.952;10.292;2023-01-13T05:08:07;99403.22;;;7.02
65316;BMP280;51920;53.952;10.292;2023-01-13T05:10:33;99407.84;;;7.02
65316;BMP280;51920;53.952;10.292;2023-01-13T05:12:58;99398.22;;;7.12
65316;BMP280;51920;53.952;10.292;2023-01-13T05:15:42;99389.00;;;7.16
65316;BMP280;51920;53.952;10.292;2023-01-13T05:18:28;99403.63;;;7.22
65316;BMP280;51920;53.952;10.292;2023-01-13T05:20:53;99399.00;;;7.16
65316;BMP280;51920;53.952;10.292;2023-01-13T05:23:19;99405.53;;;7.15
65316;BMP280;51920;53.952;10.292;2023-01-13T05:26:03;99396.31;;;7.12
65316;BMP280;51920;53.952;10.292;2023-01-13T05:28:33;99409.03;;;7.26
65316;BMP280;51920;53.952;10.292;2023-01-13T05:30:58;99408.22;;;7.22
65316;BMP280;51920;53.952;10.292;2023-01-13T05:33:24;99395.53;;;7.12
65316;BMP280;51920;53.952;10.292;2023-01-13T05:35:49;99404.00;;;7.06
65316;BMP280;51920;53.952;10.292;2023-01-13T05:38:15;99415.16;;;7.05
65316;BMP280;51920;53.952;10.292;2023-01-13T05:40:42;99397.06;;;7.09
65316;BMP280;51920;53.952;10.292;2023-01-13T05:43:27;99396.31;;;7.19
65316;BMP280;51920;53.952;10.292;2023-01-13T05:46:04;99382.84;;;7.09
65316;BMP280;51920;53.952;10.292;2023-01-13T05:48:38;99394.75;;;7.00
65316;BMP280;51920;53.952;10.292;2023-01-13T05:51:05;99387.06;;;7.17
65316;BMP280;51920;53.952;10.292;2023-01-13T05:53:31;99383.22;;;7.07
65316;BMP280;51920;53.952;10.292;2023-01-13T05:55:58;99390.53;;;7.06
65316;BMP280;51920;53.952;10.292;2023-01-13T05:58:25;99396.69;;;7.14
65316;BMP280;51920;53.952;10.292;2023-01-13T06:00:51;99394.75;;;7.33
65316;BMP280;51920;53.952;10.292;2023-01-13T06:03:17;99397.44;;;7.33
65316;BMP280;51920;53.952;10.292;2023-01-13T06:05:46;99387.84;;;7.24
65316;BMP280;51920;53.952;10.292;2023-01-13T06:08:11;99404.78;;;7.25
65316;BMP280;51920;53.952;10.292;2023-01-13T06:10:37;99400.94;;;7.22
65316;BMP280;51920;53.952;10.292;2023-01-13T06:13:03;99402.09;;;7.25
65316;BMP280;51920;53.952;10.292;2023-01-13T06:15:28;99390.91;;;7.19
65316;BMP280;51920;53.952;10.292;2023-01-13T06:17:54;99398.25;;;7.22
65316;BMP280;51920;53.952;10.292;2023-01-13T06:20:21;99395.94;;;7.28
65316;BMP280;51920;53.952;10.292;2023-01-13T06:22:48;99393.25;;;7.24
65316;BMP280;51920;53.952;10.292;2023-01-13T06:25:22;99397.81;;;7.35
65316;BMP280;51920;53.952;10.292;2023-01-13T06:27:49;99390.13;;;7.19
65316;BMP280;51920;53.952;10.292;2023-01-13T06:30:15;99393.22;;;7.17
65316;BMP280;51920;53.952;10.292;2023-01-13T06:32:44;99396.31;;;7.26
65316;BMP280;51920;53.952;10.292;2023-01-13T06:35:13;99382.47;;;7.28
65316;BMP280;51920;53.952;10.292;2023-01-13T06:37:41;99393.25;;;7.28
65316;BMP280;51920;53.952;10.292;2023-01-13T06:40:09;99397.81;;;7.31
65316;BMP280;51920;53.952;10.292;2023-01-13T06:42:35;99389.38;;;7.18
65316;BMP280;51920;53.952;10.292;2023-01-13T06:45:21;99392.84;;;7.33
65316;BMP280;51920;53.952;10.292;2023-01-13T06:47:47;99388.63;;;7.21
65316;BMP280;51920;53.952;10.292;2023-01-13T06:50:12;99390.16;;;7.30
65316;BMP280;51920;53.952;10.292;2023-01-13T06:52:38;99391.28;;;7.18
65316;BMP280;51920;53.952;10.292;2023-01-13T06:55:03;99383.22;;;7.07
65316;BMP280;51920;53.952;10.292;2023-01-13T06:57:29;99387.84;;;7.24
65316;BMP280;51920;53.952;10.292;2023-01-13T06:59:54;99388.63;;;7.21
65316;BMP280;51920;53.952;10.292;2023-01-13T07:02:20;99394.38;;;7.20
65316;BMP280;51920;53.952;10.292;2023-01-13T07:04:45;99388.63;;;7.21
65316;BMP280;51920;53.952;10.292;2023-01-13T07:07:12;99394.00;;;7.18
65316;BMP280;51920;53.952;10.292;2023-01-13T07:09:38;99400.50;;;7.17
65316;BMP280;51920;53.952;10.292;2023-01-13T07:12:03;99392.44;;;7.17
65316;BMP280;51920;53.952;10.292;2023-01-13T07:14:29;99391.69;;;7.16
65316;BMP280;51920;53.952;10.292;2023-01-13T07:17:13;99385.91;;;7.21
65316;BMP280;51920;53.952;10.292;2023-01-13T07:19:38;99386.28;;;7.20
65316;BMP280;51920;53.952;10.292;2023-01-13T07:22:04;99394.00;;;7.14
65316;BMP280;51920;53.952;10.292;2023-01-13T07:24:29;99399.00;;;7.19
65316;BMP280;51920;53.952;10.292;2023-01-13T07:26:54;99400.13;;;7.22
65316;BMP280;51920;53.952;10.292;2023-01-13T07:29:20;99392.06;;;7.22
65316;BMP280;51920;53.952;10.292;2023-01-13T07:31:45;99397.84;;;7.27
65316;BMP280;51920;53.952;10.292;2023-01-13T07:34:11;99393.97;;;7.28
65316;BMP280;51920;53.952;10.292;2023-01-13T07:36:36;99387.03;;;7.35
65316;BMP280;51920;53.952;10.292;2023-01-13T07:39:04;99399.72;;;7.41
65316;BMP280;51920;53.952;10.292;2023-01-13T07:41:29;99402.44;;;7.52
65316;BMP280;51920;53.952;10.292;2023-01-13T07:44:13;99398.19;;;7.58
65316;BMP280;51920;53.952;10.292;2023-01-13T07:46:39;99402.03;;;7.57
65316;BMP280;51920;53.952;10.292;2023-01-13T07:49:05;99394.72;;;7.51
65316;BMP280;51920;53.952;10.292;2023-01-13T07:51:30;99399.34;;;7.61
65316;BMP280;51920;53.952;10.292;2023-01-13T07:53:56;99390.50;;;7.46
65316;BMP280;51920;53.952;10.292;2023-01-13T07:56:21;99380.13;;;7.48
65316;BMP280;51920;53.952;10.292;2023-01-13T07:58:46;99386.28;;;7.48
65316;BMP280;51920;53.952;10.292;2023-01-13T08:01:16;99381.66;;;7.45
65316;BMP280;51920;53.952;10.292;2023-01-13T08:03:42;99390.13;;;7.47
65316;BMP280;51920;53.952;10.292;2023-01-13T08:06:09;99387.06;;;7.45
65316;BMP280;51920;53.952;10.292;2023-01-13T08:08:34;99382.06;;;7.51
65316;BMP280;51920;53.952;10.292;2023-01-13T08:11:01;99385.50;;;7.44
65316;BMP280;51920;53.952;10.292;2023-01-13T08:13:27;99387.47;;;7.37
65316;BMP280;51920;53.952;10.292;2023-01-13T08:15:58;99381.66;;;7.49
65316;BMP280;51920;53.952;10.292;2023-01-13T08:18:24;99386.28;;;7.52
65316;BMP280;51920;53.952;10.292;2023-01-13T08:20:50;99383.16;;;7.61
65316;BMP280;51920;53.952;10.292;2023-01-13T08:23:17;99392.41;;;7.56
65316;BMP280;51920;53.952;10.292;2023-01-13T08:25:43;99402.38;;;7.66
65316;BMP280;51920;53.952;10.292;2023-01-13T08:28:09;99406.97;;;7.80
65316;BMP280;51920;53.952;10.292;2023-01-13T08:30:34;99396.59;;;7.72
65316;BMP280;51920;53.952;10.292;2023-01-13T08:33:00;99400.81;;;7.80
65316;BMP280;51920;53.952;10.292;2023-01-13T08:35:26;99396.56;;;7.79
65316;BMP280;51920;53.952;10.292;2023-01-13T08:37:51;99391.56;;;7.81
65316;BMP280;51920;53.952;10.292;2023-01-13T08:40:18;99393.09;;;7.89
65316;BMP280;51920;53.952;10.292;2023-01-13T08:42:45;99385.78;;;7.86
65316;BMP280;51920;53.952;10.292;2023-01-13T08:45:12;99386.88;;;7.99
65316;BMP280;51920;53.952;10.292;2023-01-13T08:47:37;99394.63;;;7.97
65316;BMP280;51920;53.952;10.292;2023-01-13T08:50:03;99384.63;;;7.91
65316;BMP280;51920;53.952;10.292;2023-01-13T08:52:29;99384.56;;;7.98
65316;BMP280;51920;53.952;10.292;2023-01-13T08:54:55;99385.00;;;7.96
65316;BMP280;51920;53.952;10.292;2023-01-13T08:57:20;99373.06;;;7.97
65316;BMP280;51920;53.952;10.292;2023-01-13T08:59:46;99365.31;;;8.03
65316;BMP280;51920;53.952;10.292;2023-01-13T09:02:20;99366.88;;;7.97
65316;BMP280;51920;53.952;10.292;2023-01-13T09:04:46;99373.03;;;8.04
65316;BMP280;51920;53.952;10.292;2023-01-13T09:07:12;99370.22;;;8.22
65316;BMP280;51920;53.952;10.292;2023-01-13T09:09:37;99367.56;;;8.19
65316;BMP280;51920;53.952;10.292;2023-01-13T09:12:03;99359.03;;;8.27
65316;BMP280;51920;53.952;10.292;2023-01-13T09:14:48;99363.53;;;8.48
65316;BMP280;51920;53.952;10.292;2023-01-13T09:17:13;99369.56;;;8.67
65316;BMP280;51920;53.952;10.292;2023-01-13T09:19:39;99369.81;;;8.83
65316;BMP280;51920;53.952;10.292;2023-01-13T09:22:05;99368.91;;;9.01
65316;BMP280;51920;53.952;10.292;2023-01-13T09:24:30;99377.41;;;8.99
65316;BMP280;51920;53.952;10.292;2023-01-13T09:26:56;99363.25;;;8.84
65316;BMP280;51920;53.952;10.292;2023-01-13T09:29:21;99373.34;;;8.80
65316;BMP280;51920;53.952;10.292;2023-01-13T09:31:47;99372.03;;;8.96
65316;BMP280;51920;53.952;10.292;2023-01-13T09:34:15;99375.88;;;8.98
65316;BMP280;51920;53.952;10.292;2023-01-13T09:37:00;99370.03;;;9.07
65316;BMP280;51920;53.952;10.292;2023-01-13T09:39:25;99377.81;;;8.98
65316;BMP280;51920;53.952;10.292;2023-01-13T09:41:54;99377.06;;;8.94
65316;BMP280;51920;53.952;10.292;2023-01-13T09:44:47;99374.88;;;8.81
65316;BMP280;51920;53.952;10.292;2023-01-13T09:47:30;99378.44;;;8.64
65316;BMP280;51920;53.952;10.292;2023-01-13T09:50:14;99389.28;;;8.57
65316;BMP280;51920;53.952;10.292;2023-01-13T09:52:42;99379.69;;;8.56
65316;BMP280;51920;53.952;10.292;2023-01-13T09:55:13;99379.72;;;8.48
65316;BMP280;51920;53.952;10.292;2023-01-13T09:57:39;99379.00;;;8.37
65316;BMP280;51920;53.952;10.292;2023-01-13T10:00:15;99372.47;;;8.31
65316;BMP280;51920;53.952;10.292;2023-01-13T10:05:38;99381.72;;;8.34
65316;BMP280;51920;53.952;10.292;2023-01-13T10:08:14;99369.34;;;8.43
65316;BMP280;51920;53.952;10.292;2023-01-13T10:10:48;99368.16;;;8.44
65316;BMP280;51920;53.952;10.292;2023-01-13T10:13:18;99353.47;;;8.53
65316;BMP280;51920;53.952;10.292;2023-01-13T10:18:38;99354.94;;;8.64
65316;BMP280;51920;53.952;10.292;2023-01-13T10:24:03;99357.28;;;8.59
65316;BMP280;51920;53.952;10.292;2023-01-13T10:29:17;99353.38;;;8.67
65316;BMP280;51920;53.952;10.292;2023-01-13T10:31:43;99364.56;;;8.62
65316;BMP280;51920;53.952;10.292;2023-01-13T10:34:08;99349.53;;;8.64
65316;BMP280;51920;53.952;10.292;2023-01-13T10:36:34;99354.94;;;8.64
65316;BMP280;51920;53.952;10.292;2023-01-13T10:39:08;99354.78;;;8.86
65316;BMP280;51920;53.952;10.292;2023-01-13T10:41:34;99353.88;;;8.96
65316;BMP280;51920;53.952;10.292;2023-01-13T10:44:25;99361.50;;;9.08
65316;BMP280;51920;53.952;10.292;2023-01-13T10:46:55;99356.13;;;9.05
65316;BMP280;51920;53.952;10.292;2023-01-13T10:49:32;99368.19;;;8.93
65316;BMP280;51920;53.952;10.292;2023-01-13T10:51:59;99367.16;;;8.76
65316;BMP280;51920;53.952;10.292;2023-01-13T10:54:26;99353.53;;;8.45
65316;BMP280;51920;53.952;10.292;2023-01-13T10:57:21;99358.22;;;8.34
65316;BMP280;51920;53.952;10.292;2023-01-13T10:59:47;99363.63;;;8.34
65316;BMP280;51920;53.952;10.292;2023-01-13T11:02:29;99364.38;;;8.38
65316;BMP280;51920;53.952;10.292;2023-01-13T11:10:15;99369.75;;;8.38
65316;BMP280;51920;53.952;10.292;2023-01-13T11:15:23;99372.41;;;8.42
65316;BMP280;51920;53.952;10.292;2023-01-13T11:18:07;99371.22;;;8.46
65316;BMP280;51920;53.952;10.292;2023-01-13T11:20:39;99375.03;;;8.56
65316;BMP280;51920;53.952;10.292;2023-01-13T11:23:16;99368.78;;;8.70
65316;BMP280;51920;53.952;10.292;2023-01-13T11:25:45;99371.41;;;8.77
65316;BMP280;51920;53.952;10.292;2023-01-13T11:28:37;99364.88;;;8.75
65316;BMP280;51920;53.952;10.292;2023-01-13T11:31:27;99373.41;;;8.66
65316;BMP280;51920;53.952;10.292;2023-01-13T11:33:57;99378.00;;;8.73
65316;BMP280;51920;53.952;10.292;2023-01-13T11:36:29;99366.94;;;8.53
65316;BMP280;51920;53.952;10.292;2023-01-13T11:39:24;99373.19;;;8.42
65316;BMP280;51920;53.952;10.292;2023-01-13T11:42:00;99368.94;;;8.48
65316;BMP280;51920;53.952;10.292;2023-01-13T11:44:55;99360.44;;;8.43
65316;BMP280;51920;53.952;10.292;2023-01-13T11:47:24;99372.03;;;8.43
65316;BMP280;51920;53.952;10.292;2023-01-13T11:49:50;99377.41;;;8.51
65316;BMP280;51920;53.952;10.292;2023-01-13T11:52:18;99367.47;;;8.33
65316;BMP280;51920;53.952;10.292;2023-01-13T11:55:08;99370.59;;;8.21
65316;BMP280;51920;53.952;10.292;2023-01-13T12:00:41;99365.97;;;8.25
65316;BMP280;51920;53.952;10.292;2023-01-13T12:03:31;99372.09;;;8.33
65316;BMP280;51920;53.952;10.292;2023-01-13T12:11:24;99370.97;;;8.26
65316;BMP280;51920;53.952;10.292;2023-01-13T12:14:08;99377.13;;;8.23
65316;BMP280;51920;53.952;10.292;2023-01-13T12:16:45;99365.97;;;8.25
65316;BMP280;51920;53.952;10.292;2023-01-13T12:19:22;99379.44;;;8.28
65316;BMP280;51920;53.952;10.292;2023-01-13T12:24:47;99374.84;;;8.22
65316;BMP280;51920;53.952;10.292;2023-01-13T12:30:35;99381.44;;;8.14
65316;BMP280;51920;53.952;10.292;2023-01-13T12:33:22;99382.22;;;8.11
65316;BMP280;51920;53.952;10.292;2023-01-13T12:35:58;99381.47;;;8.06
65316;BMP280;51920;53.952;10.292;2023-01-13T12:39:15;99396.91;;;8.06
65316;BMP280;51920;53.952;10.292;2023-01-13T12:44:23;99403.91;;;7.85
65316;BMP280;51920;53.952;10.292;2023-01-13T12:46:50;99392.69;;;7.87
65316;BMP280;51920;53.952;10.292;2023-01-13T12:49:25;99399.28;;;7.79
65316;BMP280;51920;53.952;10.292;2023-01-13T12:59:43;99397.78;;;7.71
65316;BMP280;51920;53.952;10.292;2023-01-13T13:04:54;99400.44;;;7.78
65316;BMP280;51920;53.952;10.292;2023-01-13T13:09:59;99397.00;;;7.66
65316;BMP280;51920;53.952;10.292;2023-01-13T13:17:59;99407.03;;;7.55
65316;BMP280;51920;53.952;10.292;2023-01-13T13:21:02;99405.88;;;7.53
65316;BMP280;51920;53.952;10.292;2023-01-13T13:28:59;99415.47;;;7.68
65316;BMP280;51920;53.952;10.292;2023-01-13T13:37:12;99407.00;;;7.66
65316;BMP280;51920;53.952;10.292;2023-01-13T13:39:41;99401.25;;;7.60
65316;BMP280;51920;53.952;10.292;2023-01-13T13:42:27;99404.69;;;7.64
65316;BMP280;51920;53.952;10.292;2023-01-13T13:45:20;99403.09;;;7.92
65316;BMP280;51920;53.952;10.292;2023-01-13T13:48:27;99413.53;;;7.76
65316;BMP280;51920;53.952;10.292;2023-01-13T13:50:57;99421.63;;;7.76
65316;BMP280;51920;53.952;10.292;2023-01-13T13:53:29;99434.72;;;7.70
65316;BMP280;51920;53.952;10.292;2023-01-13T13:55:58;99420.84;;;7.82
65316;BMP280;51920;53.952;10.292;2023-01-13T13:58:25;99408.94;;;7.73
65316;BMP280;51920;53.952;10.292;2023-01-13T14:00:52;99417.78;;;7.70
65316;BMP280;51920;53.952;10.292;2023-01-13T14:03:23;99417.81;;;7.62
65316;BMP280;51920;53.952;10.292;2023-01-13T14:06:02;99413.53;;;7.65
65316;BMP280;51920;53.952;10.292;2023-01-13T14:08:31;99423.19;;;7.62
65316;BMP280;51920;53.952;10.292;2023-01-13T14:10:56;99427.81;;;7.55
65316;BMP280;51920;53.952;10.292;2023-01-13T14:13:29;99421.66;;;7.54
65316;BMP280;51920;53.952;10.292;2023-01-13T14:16:02;99422.44;;;7.62
65316;BMP280;51920;53.952;10.292;2023-01-13T14:18:31;99422.47;;;7.51
65316;BMP280;51920;53.952;10.292;2023-01-13T14:20:59;99413.56;;;7.61
65316;BMP280;51920;53.952;10.292;2023-01-13T14:23:27;99422.81;;;7.60
65316;BMP280;51920;53.952;10.292;2023-01-13T14:25:54;99427.03;;;7.61
65316;BMP280;51920;53.952;10.292;2023-01-13T14:28:24;99432.44;;;7.61
65316;BMP280;51920;53.952;10.292;2023-01-13T14:30:51;99432.44;;;7.68
65316;BMP280;51920;53.952;10.292;2023-01-13T14:33:22;99436.28;;;7.67
65316;BMP280;51920;53.952;10.292;2023-01-13T14:38:36;99437.81;;;7.61
65316;BMP280;51920;53.952;10.292;2023-01-13T14:41:30;99425.50;;;7.67
65316;BMP280;51920;53.952;10.292;2023-01-13T14:43:58;99428.19;;;7.71
65316;BMP280;51920;53.952;10.292;2023-01-13T14:46:36;99434.34;;;7.72
65316;BMP280;51920;53.952;10.292;2023-01-13T14:49:01;99435.53;;;7.63
65316;BMP280;51920;53.952;10.292;2023-01-13T14:51:28;99442.81;;;7.63
65316;BMP280;51920;53.952;10.292;2023-01-13T14:53:54;99429.72;;;7.65
65316;BMP280;51920;53.952;10.292;2023-01-13T14:56:44;99444.75;;;7.59
65316;BMP280;51920;53.952;10.292;2023-01-13T15:01:55;99458.22;;;7.55
65316;BMP280;51920;53.952;10.292;2023-01-13T15:04:26;99474.78;;;7.57
65316;BMP280;51920;53.952;10.292;2023-01-13T15:06:56;99474.03;;;7.50
65316;BMP280;51920;53.952;10.292;2023-01-13T15:09:24;99481.34;;;7.49
65316;BMP280;51920;53.952;10.292;2023-01-13T15:11:51;99466.69;;;7.61
65316;BMP280;51920;53.952;10.292;2023-01-13T15:14:23;99474.03;;;7.46
65316;BMP280;51920;53.952;10.292;2023-01-13T15:16:49;99464.75;;;7.29
65316;BMP280;51920;53.952;10.292;2023-01-13T15:19:14;99463.25;;;7.32
65316;BMP280;51920;53.952;10.292;2023-01-13T15:21:40;99466.69;;;7.28
65316;BMP280;51920;53.952;10.292;2023-01-13T15:24:05;99475.53;;;7.25
65316;BMP280;51920;53.952;10.292;2023-01-13T15:26:32;99479.00;;;7.30
65316;BMP280;51920;53.952;10.292;2023-01-13T15:28:58;99473.22;;;7.35
65316;BMP280;51920;53.952;10.292;2023-01-13T15:31:26;99473.25;;;7.27
65316;BMP280;51920;53.952;10.292;2023-01-13T15:33:51;99483.25;;;7.27
65316;BMP280;51920;53.952;10.292;2023-01-13T15:36:29;99471.72;;;7.26
65316;BMP280;51920;53.952;10.292;2023-01-13T15:38:56;99480.53;;;7.20
65316;BMP280;51920;53.952;10.292;2023-01-13T15:41:22;99474.03;;;7.24
65316;BMP280;51920;53.952;10.292;2023-01-13T15:44:07;99480.53;;;7.31
65316;BMP280;51920;53.952;10.292;2023-01-13T15:46:53;99484.00;;;7.27
65316;BMP280;51920;53.952;10.292;2023-01-13T15:49:38;99492.88;;;7.32
65316;BMP280;51920;53.952;10.292;2023-01-13T15:52:12;99489.00;;;7.29
65316;BMP280;51920;53.952;10.292;2023-01-13T15:54:41;99492.47;;;7.30
65316;BMP280;51920;53.952;10.292;2023-01-13T15:57:15;99494.03;;;7.38
65316;BMP280;51920;53.952;10.292;2023-01-13T15:59:44;99497.88;;;7.44
65316;BMP280;51920;53.952;10.292;2023-01-13T16:02:11;99494.41;;;7.40
65316;BMP280;51920;53.952;10.292;2023-01-13T16:04:39;99503.66;;;7.39
65316;BMP280;51920;53.952;10.292;2023-01-13T16:07:14;99496.72;;;7.45
65316;BMP280;51920;53.952;10.292;2023-01-13T16:09:40;99497.88;;;7.47
65316;BMP280;51920;53.952;10.292;2023-01-13T16:12:05;99489.03;;;7.51